sensor_id;sensor_type;location;lat;lon;timestamp;temperature;humidity
3994;DHT22;2011;48.238;13.948;2023-06-22T00:01:19;22.30;97.70
3994;DHT22;2011;48.238;13.948;2023-06-22T00:03:48;22.20;98.10
3994;DHT22;2011;48.238;13.948;2023-06-22T00:06:15;22.20;98.20
3994;DHT22;2011;48.238;13.948;2023-06-22T00:08:43;22.20;98.30
3994;DHT22;2011;48.238;13.948;2023-06-22T00:11:11;22.20;98.30
3994;DHT22;2011;48.238;13.948;2023-06-22T00:13:39;22.20;98.50
3994;DHT22;2011;48.238;13.948;2023-06-22T00:16:06;22.20;98.70
3994;DHT22;2011;48.238;13.948;2023-06-22T00:18:34;22.10;98.70
3994;DHT22;2011;48.238;13.948;2023-06-22T00:21:01;22.10;99.30
3994;DHT22;2011;48.238;13.948;2023-06-22T00:23:29;22.10;99.70
3994;DHT22;2011;48.238;13.948;2023-06-22T00:25:59;21.90;99.90
3994;DHT22;2011;48.238;13.948;2023-06-22T00:28:28;21.70;99.90
3994;DHT22;2011;48.238;13.948;2023-06-22T00:30:56;21.80;99.90
3994;DHT22;2011;48.238;13.948;2023-06-22T00:33:23;21.80;99.90
3994;DHT22;2011;48.238;13.948;2023-06-22T00:35:51;21.80;99.90
3994;DHT22;2011;48.238;13.948;2023-06-22T00:38:19;21.80;99.90
3994;DHT22;2011;48.238;13.948;2023-06-22T00:40:47;21.90;99.90
3994;DHT22;2011;48.238;13.948;2023-06-22T00:43:16;21.90;99.90
3994;DHT22;2011;48.238;13.948;2023-06-22T00:45:45;21.90;99.90
3994;DHT22;2011;48.238;13.948;2023-06-22T00:48:14;21.80;99.90
3994;DHT22;2011;48.238;13.948;2023-06-22T00:50:41;21.80;99.90
3994;DHT22;2011;48.238;13.948;2023-06-22T00:53:09;21.60;99.90
3994;DHT22;2011;48.238;13.948;2023-06-22T00:55:38;21.60;99.90
3994;DHT22;2011;48.238;13.948;2023-06-22T00:58:08;21.60;99.90
3994;DHT22;2011;48.238;13.948;2023-06-22T01:00:36;21.60;99.90
3994;DHT22;2011;48.238;13.948;2023-06-22T01:03:05;21.60;99.90
3994;DHT22;2011;48.238;13.948;2023-06-22T01:05:35;21.60;99.90
3994;DHT22;2011;48.238;13.948;2023-06-22T01:08:14;21.70;99.90
3994;DHT22;2011;48.238;13.948;2023-06-22T01:10:50;21.60;99.90
3994;DHT22;2011;48.238;13.948;2023-06-22T01:13:28;21.60;99.90
3994;DHT22;2011;48.238;13.948;2023-06-22T01:16:01;21.60;99.90
3994;DHT22;2011;48.238;13.948;2023-06-22T01:18:31;21.60;99.90
3994;DHT22;2011;48.238;13.948;2023-06-22T01:21:02;21.60;99.90
3994;DHT22;2011;48.238;13.948;2023-06-22T01:23:46;21.50;99.90
3994;DHT22;2011;48.238;13.948;2023-06-22T01:26:20;21.50;99.90
3994;DHT22;2011;48.238;13.948;2023-06-22T01:28:50;21.40;99.90
3994;DHT22;2011;48.238;13.948;2023-06-22T01:31:20;21.40;99.90
3994;DHT22;2011;48.238;13.948;2023-06-22T01:33:51;21.40;99.90
3994;DHT22;2011;48.238;13.948;2023-06-22T01:36:21;21.30;99.90
3994;DHT22;2011;48.238;13.948;2023-06-22T01:38:49;21.20;99.90
3994;DHT22;2011;48.238;13.948;2023-06-22T01:41:17;21.10;99.90
3994;DHT22;2011;48.238;13.948;2023-06-22T01:43:46;21.10;99.90
3994;DHT22;2011;48.238;13.948;2023-06-22T01:46:15;21.10;99.90
3994;DHT22;2011;48.238;13.948;2023-06-22T01:48:45;21.00;99.90
3994;DHT22;2011;48.238;13.948;2023-06-22T01:51:13;21.00;99.90
3994;DHT22;2011;48.238;13.948;2023-06-22T01:53:40;21.00;99.90
3994;DHT22;2011;48.238;13.948;2023-06-22T01:56:08;21.00;99.90
3994;DHT22;2011;48.238;13.948;2023-06-22T01:58:38;21.00;99.90
3994;DHT22;2011;48.238;13.948;2023-06-22T02:01:10;21.00;99.90
3994;DHT22;2011;48.238;13.948;2023-06-22T02:03:43;20.90;99.90
3994;DHT22;2011;48.238;13.948;2023-06-22T02:06:23;20.90;99.90
3994;DHT22;2011;48.238;13.948;2023-06-22T02:08:55;20.90;99.90
3994;DHT22;2011;48.238;13.948;2023-06-22T02:11:24;20.70;99.90
3994;DHT22;2011;48.238;13.948;2023-06-22T02:13:53;20.60;99.90
3994;DHT22;2011;48.238;13.948;2023-06-22T02:16:21;20.50;99.90
3994;DHT22;2011;48.238;13.948;2023-06-22T02:18:51;20.50;99.90
3994;DHT22;2011;48.238;13.948;2023-06-22T02:21:18;20.50;99.90
3994;DHT22;2011;48.238;13.948;2023-06-22T02:23:46;20.50;99.90
3994;DHT22;2011;48.238;13.948;2023-06-22T02:26:16;20.50;99.90
3994;DHT22;2011;48.238;13.948;2023-06-22T02:28:44;20.50;99.90
3994;DHT22;2011;48.238;13.948;2023-06-22T02:31:12;20.50;99.90
3994;DHT22;2011;48.238;13.948;2023-06-22T02:33:39;20.50;99.90
3994;DHT22;2011;48.238;13.948;2023-06-22T02:36:07;20.50;99.90
3994;DHT22;2011;48.238;13.948;2023-06-22T02:38:35;20.50;99.90
3994;DHT22;2011;48.238;13.948;2023-06-22T02:41:02;20.50;99.90
3994;DHT22;2011;48.238;13.948;2023-06-22T02:43:29;20.50;99.90
3994;DHT22;2011;48.238;13.948;2023-06-22T02:45:57;20.50;99.90
3994;DHT22;2011;48.238;13.948;2023-06-22T02:48:24;20.50;99.90
3994;DHT22;2011;48.238;13.948;2023-06-22T02:50:51;20.50;99.90
3994;DHT22;2011;48.238;13.948;2023-06-22T02:53:20;20.50;99.90
3994;DHT22;2011;48.238;13.948;2023-06-22T02:55:47;20.60;99.90
3994;DHT22;2011;48.238;13.948;2023-06-22T02:58:15;20.50;99.90
3994;DHT22;2011;48.238;13.948;2023-06-22T03:00:53;20.50;99.90
3994;DHT22;2011;48.238;13.948;2023-06-22T03:03:21;20.50;99.90
3994;DHT22;2011;48.238;13.948;2023-06-22T03:05:52;20.50;99.90
3994;DHT22;2011;48.238;13.948;2023-06-22T03:08:25;20.70;99.90
3994;DHT22;2011;48.238;13.948;2023-06-22T03:10:52;20.50;99.90
3994;DHT22;2011;48.238;13.948;2023-06-22T03:13:19;20.50;99.90
3994;DHT22;2011;48.238;13.948;2023-06-22T03:15:46;20.50;99.90
3994;DHT22;2011;48.238;13.948;2023-06-22T03:18:14;20.40;99.90
3994;DHT22;2011;48.238;13.948;2023-06-22T03:20:42;20.40;99.90
3994;DHT22;2011;48.238;13.948;2023-06-22T03:23:09;20.50;99.90
3994;DHT22;2011;48.238;13.948;2023-06-22T03:25:37;20.50;99.90
3994;DHT22;2011;48.238;13.948;2023-06-22T03:28:05;20.50;99.90
3994;DHT22;2011;48.238;13.948;2023-06-22T03:30:32;20.60;99.90
3994;DHT22;2011;48.238;13.948;2023-06-22T03:32:59;20.60;99.90
3994;DHT22;2011;48.238;13.948;2023-06-22T03:35:27;20.60;99.90
3994;DHT22;2011;48.238;13.948;2023-06-22T03:37:55;20.60;99.90
3994;DHT22;2011;48.238;13.948;2023-06-22T03:40:22;20.50;99.90
3994;DHT22;2011;48.238;13.948;2023-06-22T03:42:51;20.50;99.90
3994;DHT22;2011;48.238;13.948;2023-06-22T03:45:19;20.50;99.90
3994;DHT22;2011;48.238;13.948;2023-06-22T03:47:46;20.50;99.90
3994;DHT22;2011;48.238;13.948;2023-06-22T03:50:13;20.60;99.90
3994;DHT22;2011;48.238;13.948;2023-06-22T03:52:41;20.60;99.90
3994;DHT22;2011;48.238;13.948;2023-06-22T03:55:09;20.70;99.90
3994;DHT22;2011;48.238;13.948;2023-06-22T03:57:37;20.70;99.90
3994;DHT22;2011;48.238;13.948;2023-06-22T04:00:07;20.70;99.90
3994;DHT22;2011;48.238;13.948;2023-06-22T04:02:35;20.70;99.90
3994;DHT22;2011;48.238;13.948;2023-06-22T04:05:03;20.80;99.90
3994;DHT22;2011;48.238;13.948;2023-06-22T04:07:30;20.80;99.90
3994;DHT22;2011;48.238;13.948;2023-06-22T04:09:58;20.80;99.90
3994;DHT22;2011;48.238;13.948;2023-06-22T04:12:27;20.80;99.90
3994;DHT22;2011;48.238;13.948;2023-06-22T04:14:54;20.90;99.90
3994;DHT22;2011;48.238;13.948;2023-06-22T04:17:23;20.90;99.90
3994;DHT22;2011;48.238;13.948;2023-06-22T04:19:50;20.90;99.90
3994;DHT22;2011;48.238;13.948;2023-06-22T04:22:18;20.90;99.90
3994;DHT22;2011;48.238;13.948;2023-06-22T04:24:45;20.80;99.90
3994;DHT22;2011;48.238;13.948;2023-06-22T04:27:12;20.80;99.90
3994;DHT22;2011;48.238;13.948;2023-06-22T04:29:40;20.80;99.90
3994;DHT22;2011;48.238;13.948;2023-06-22T04:32:14;20.80;99.90
3994;DHT22;2011;48.238;13.948;2023-06-22T04:34:44;20.80;99.90
3994;DHT22;2011;48.238;13.948;2023-06-22T04:37:11;20.90;99.90
3994;DHT22;2011;48.238;13.948;2023-06-22T04:39:41;20.90;99.90
3994;DHT22;2011;48.238;13.948;2023-06-22T04:42:09;21.00;99.90
3994;DHT22;2011;48.238;13.948;2023-06-22T04:44:36;21.00;99.90
3994;DHT22;2011;48.238;13.948;2023-06-22T04:47:08;21.10;99.90
3994;DHT22;2011;48.238;13.948;2023-06-22T04:49:36;21.10;99.90
3994;DHT22;2011;48.238;13.948;2023-06-22T04:52:08;21.20;99.90
3994;DHT22;2011;48.238;13.948;2023-06-22T04:54:37;21.30;99.90
3994;DHT22;2011;48.238;13.948;2023-06-22T04:57:06;21.30;99.90
3994;DHT22;2011;48.238;13.948;2023-06-22T04:59:37;21.40;99.90
3994;DHT22;2011;48.238;13.948;2023-06-22T05:02:07;21.50;99.90
3994;DHT22;2011;48.238;13.948;2023-06-22T05:04:35;21.50;99.90
3994;DHT22;2011;48.238;13.948;2023-06-22T05:07:04;21.60;99.90
3994;DHT22;2011;48.238;13.948;2023-06-22T05:09:34;21.70;99.90
3994;DHT22;2011;48.238;13.948;2023-06-22T05:12:02;21.80;99.90
3994;DHT22;2011;48.238;13.948;2023-06-22T05:14:30;22.00;99.90
3994;DHT22;2011;48.238;13.948;2023-06-22T05:16:58;22.10;99.90
3994;DHT22;2011;48.238;13.948;2023-06-22T05:19:29;22.20;99.90
3994;DHT22;2011;48.238;13.948;2023-06-22T05:21:59;22.30;99.90
3994;DHT22;2011;48.238;13.948;2023-06-22T05:24:26;22.40;99.90
3994;DHT22;2011;48.238;13.948;2023-06-22T05:26:55;22.50;99.90
3994;DHT22;2011;48.238;13.948;2023-06-22T05:29:23;22.60;99.90
3994;DHT22;2011;48.238;13.948;2023-06-22T05:31:50;22.70;99.90
3994;DHT22;2011;48.238;13.948;2023-06-22T05:34:19;22.90;99.90
3994;DHT22;2011;48.238;13.948;2023-06-22T05:36:47;23.00;99.90
3994;DHT22;2011;48.238;13.948;2023-06-22T05:39:14;23.10;99.90
3994;DHT22;2011;48.238;13.948;2023-06-22T05:41:44;23.20;99.90
3994;DHT22;2011;48.238;13.948;2023-06-22T05:44:14;23.30;99.90
3994;DHT22;2011;48.238;13.948;2023-06-22T05:46:43;23.40;99.90
3994;DHT22;2011;48.238;13.948;2023-06-22T05:49:12;23.50;99.90
3994;DHT22;2011;48.238;13.948;2023-06-22T05:51:40;23.60;99.90
3994;DHT22;2011;48.238;13.948;2023-06-22T05:54:09;23.80;99.90
3994;DHT22;2011;48.238;13.948;2023-06-22T05:56:39;23.80;99.90
3994;DHT22;2011;48.238;13.948;2023-06-22T05:59:06;23.90;99.90
3994;DHT22;2011;48.238;13.948;2023-06-22T06:01:35;24.00;99.90
3994;DHT22;2011;48.238;13.948;2023-06-22T06:04:03;24.10;99.90
3994;DHT22;2011;48.238;13.948;2023-06-22T06:06:32;24.10;99.90
3994;DHT22;2011;48.238;13.948;2023-06-22T06:09:00;24.20;99.90
3994;DHT22;2011;48.238;13.948;2023-06-22T06:11:28;24.30;99.90
3994;DHT22;2011;48.238;13.948;2023-06-22T06:13:55;24.40;99.90
3994;DHT22;2011;48.238;13.948;2023-06-22T06:16:23;24.50;99.90
3994;DHT22;2011;48.238;13.948;2023-06-22T06:18:52;24.60;99.90
3994;DHT22;2011;48.238;13.948;2023-06-22T06:21:21;24.80;99.90
3994;DHT22;2011;48.238;13.948;2023-06-22T06:23:49;24.80;99.90
3994;DHT22;2011;48.238;13.948;2023-06-22T06:26:17;24.90;99.90
3994;DHT22;2011;48.238;13.948;2023-06-22T06:28:55;25.00;99.90
3994;DHT22;2011;48.238;13.948;2023-06-22T06:31:23;25.10;99.40
3994;DHT22;2011;48.238;13.948;2023-06-22T06:33:55;25.10;99.40
3994;DHT22;2011;48.238;13.948;2023-06-22T06:36:30;25.30;99.60
3994;DHT22;2011;48.238;13.948;2023-06-22T06:38:57;25.40;99.30
3994;DHT22;2011;48.238;13.948;2023-06-22T06:41:24;25.40;98.40
3994;DHT22;2011;48.238;13.948;2023-06-22T06:43:52;25.30;97.30
3994;DHT22;2011;48.238;13.948;2023-06-22T06:46:19;25.40;97.30
3994;DHT22;2011;48.238;13.948;2023-06-22T06:48:47;25.40;97.40
3994;DHT22;2011;48.238;13.948;2023-06-22T06:51:17;25.50;97.50
3994;DHT22;2011;48.238;13.948;2023-06-22T06:53:44;25.70;97.40
3994;DHT22;2011;48.238;13.948;2023-06-22T06:56:11;25.70;96.80
3994;DHT22;2011;48.238;13.948;2023-06-22T06:58:41;25.90;96.70
3994;DHT22;2011;48.238;13.948;2023-06-22T07:01:10;26.00;96.20
3994;DHT22;2011;48.238;13.948;2023-06-22T07:03:38;26.00;96.20
3994;DHT22;2011;48.238;13.948;2023-06-22T07:06:05;26.20;96.40
3994;DHT22;2011;48.238;13.948;2023-06-22T07:08:34;26.30;95.70
3994;DHT22;2011;48.238;13.948;2023-06-22T07:11:02;26.50;96.10
3994;DHT22;2011;48.238;13.948;2023-06-22T07:13:31;26.70;96.10
3994;DHT22;2011;48.238;13.948;2023-06-22T07:15:59;26.80;95.50
3994;DHT22;2011;48.238;13.948;2023-06-22T07:18:27;26.90;94.70
3994;DHT22;2011;48.238;13.948;2023-06-22T07:20:54;27.00;94.10
3994;DHT22;2011;48.238;13.948;2023-06-22T07:23:23;27.10;93.80
3994;DHT22;2011;48.238;13.948;2023-06-22T07:26:00;27.10;93.30
3994;DHT22;2011;48.238;13.948;2023-06-22T07:28:29;27.10;92.30
3994;DHT22;2011;48.238;13.948;2023-06-22T07:30:58;27.00;92.90
3994;DHT22;2011;48.238;13.948;2023-06-22T07:33:25;27.10;93.00
3994;DHT22;2011;48.238;13.948;2023-06-22T07:35:54;27.20;93.40
3994;DHT22;2011;48.238;13.948;2023-06-22T07:38:22;27.40;93.00
3994;DHT22;2011;48.238;13.948;2023-06-22T07:40:49;27.40;93.10
3994;DHT22;2011;48.238;13.948;2023-06-22T07:43:20;27.50;92.90
3994;DHT22;2011;48.238;13.948;2023-06-22T07:45:51;27.60;93.00
3994;DHT22;2011;48.238;13.948;2023-06-22T07:48:20;27.70;92.30
3994;DHT22;2011;48.238;13.948;2023-06-22T07:50:48;27.70;92.30
3994;DHT22;2011;48.238;13.948;2023-06-22T07:53:16;27.80;92.40
3994;DHT22;2011;48.238;13.948;2023-06-22T07:55:43;27.80;92.00
3994;DHT22;2011;48.238;13.948;2023-06-22T07:58:11;27.90;91.70
3994;DHT22;2011;48.238;13.948;2023-06-22T08:00:41;28.00;91.60
3994;DHT22;2011;48.238;13.948;2023-06-22T08:03:09;28.10;91.40
3994;DHT22;2011;48.238;13.948;2023-06-22T08:05:37;28.20;91.80
3994;DHT22;2011;48.238;13.948;2023-06-22T08:08:04;28.30;91.80
3994;DHT22;2011;48.238;13.948;2023-06-22T08:10:32;28.50;91.90
3994;DHT22;2011;48.238;13.948;2023-06-22T08:13:00;28.60;91.40
3994;DHT22;2011;48.238;13.948;2023-06-22T08:15:27;28.80;92.10
3994;DHT22;2011;48.238;13.948;2023-06-22T08:17:56;28.90;92.10
3994;DHT22;2011;48.238;13.948;2023-06-22T08:20:27;29.00;91.50
3994;DHT22;2011;48.238;13.948;2023-06-22T08:22:54;29.00;90.80
3994;DHT22;2011;48.238;13.948;2023-06-22T08:25:24;29.10;90.80
3994;DHT22;2011;48.238;13.948;2023-06-22T08:27:51;29.10;90.10
3994;DHT22;2011;48.238;13.948;2023-06-22T08:30:19;29.20;89.30
3994;DHT22;2011;48.238;13.948;2023-06-22T08:32:46;29.30;90.00
3994;DHT22;2011;48.238;13.948;2023-06-22T08:35:15;29.30;89.80
3994;DHT22;2011;48.238;13.948;2023-06-22T08:37:43;29.40;89.50
3994;DHT22;2011;48.238;13.948;2023-06-22T08:40:17;29.50;88.70
3994;DHT22;2011;48.238;13.948;2023-06-22T08:42:46;29.60;88.40
3994;DHT22;2011;48.238;13.948;2023-06-22T08:45:14;29.60;88.10
3994;DHT22;2011;48.238;13.948;2023-06-22T08:47:41;29.70;87.90
3994;DHT22;2011;48.238;13.948;2023-06-22T08:50:09;29.80;89.10
3994;DHT22;2011;48.238;13.948;2023-06-22T08:52:40;29.90;88.20
3994;DHT22;2011;48.238;13.948;2023-06-22T08:55:09;30.00;87.60
3994;DHT22;2011;48.238;13.948;2023-06-22T08:57:36;30.10;88.20
3994;DHT22;2011;48.238;13.948;2023-06-22T09:00:07;30.20;88.90
3994;DHT22;2011;48.238;13.948;2023-06-22T09:02:43;30.30;87.80
3994;DHT22;2011;48.238;13.948;2023-06-22T09:05:12;30.40;85.20
3994;DHT22;2011;48.238;13.948;2023-06-22T09:07:41;30.40;83.50
3994;DHT22;2011;48.238;13.948;2023-06-22T09:10:09;30.40;83.10
3994;DHT22;2011;48.238;13.948;2023-06-22T09:12:37;30.40;83.00
3994;DHT22;2011;48.238;13.948;2023-06-22T09:15:05;30.60;82.00
3994;DHT22;2011;48.238;13.948;2023-06-22T09:17:33;30.70;83.40
3994;DHT22;2011;48.238;13.948;2023-06-22T09:20:03;30.80;83.40
3994;DHT22;2011;48.238;13.948;2023-06-22T09:22:32;30.90;83.10
3994;DHT22;2011;48.238;13.948;2023-06-22T09:25:01;31.00;82.60
3994;DHT22;2011;48.238;13.948;2023-06-22T09:27:30;31.10;83.70
3994;DHT22;2011;48.238;13.948;2023-06-22T09:29:57;31.30;83.40
3994;DHT22;2011;48.238;13.948;2023-06-22T09:32:25;31.30;81.90
3994;DHT22;2011;48.238;13.948;2023-06-22T09:34:53;31.40;80.90
3994;DHT22;2011;48.238;13.948;2023-06-22T09:37:20;31.30;79.40
3994;DHT22;2011;48.238;13.948;2023-06-22T09:39:47;31.30;79.50
3994;DHT22;2011;48.238;13.948;2023-06-22T09:42:15;31.40;79.60
3994;DHT22;2011;48.238;13.948;2023-06-22T09:44:42;31.50;79.10
3994;DHT22;2011;48.238;13.948;2023-06-22T09:47:11;31.40;76.70
3994;DHT22;2011;48.238;13.948;2023-06-22T09:49:38;31.30;75.80
3994;DHT22;2011;48.238;13.948;2023-06-22T09:52:05;31.40;76.60
3994;DHT22;2011;48.238;13.948;2023-06-22T09:54:32;31.60;78.00
3994;DHT22;2011;48.238;13.948;2023-06-22T09:56:59;31.90;77.80
3994;DHT22;2011;48.238;13.948;2023-06-22T09:59:28;32.10;77.70
3994;DHT22;2011;48.238;13.948;2023-06-22T10:01:57;32.20;76.40
3994;DHT22;2011;48.238;13.948;2023-06-22T10:04:24;32.40;76.30
3994;DHT22;2011;48.238;13.948;2023-06-22T10:06:52;32.40;76.20
3994;DHT22;2011;48.238;13.948;2023-06-22T10:09:20;32.40;76.50
3994;DHT22;2011;48.238;13.948;2023-06-22T10:11:47;32.50;75.00
3994;DHT22;2011;48.238;13.948;2023-06-22T10:14:15;32.50;75.50
3994;DHT22;2011;48.238;13.948;2023-06-22T10:16:43;32.60;75.80
3994;DHT22;2011;48.238;13.948;2023-06-22T10:19:12;32.60;73.70
3994;DHT22;2011;48.238;13.948;2023-06-22T10:21:39;32.60;74.10
3994;DHT22;2011;48.238;13.948;2023-06-22T10:24:07;32.70;74.10
3994;DHT22;2011;48.238;13.948;2023-06-22T10:26:35;32.70;75.30
3994;DHT22;2011;48.238;13.948;2023-06-22T10:29:03;32.70;73.10
3994;DHT22;2011;48.238;13.948;2023-06-22T10:31:31;32.70;72.70
3994;DHT22;2011;48.238;13.948;2023-06-22T10:34:00;32.90;73.20
3994;DHT22;2011;48.238;13.948;2023-06-22T10:36:27;32.90;71.50
3994;DHT22;2011;48.238;13.948;2023-06-22T10:38:55;33.10;72.30
3994;DHT22;2011;48.238;13.948;2023-06-22T10:41:25;33.20;74.00
3994;DHT22;2011;48.238;13.948;2023-06-22T10:43:55;33.40;73.10
3994;DHT22;2011;48.238;13.948;2023-06-22T10:46:24;33.40;73.20
3994;DHT22;2011;48.238;13.948;2023-06-22T10:48:53;33.40;70.50
3994;DHT22;2011;48.238;13.948;2023-06-22T10:51:24;33.40;70.40
3994;DHT22;2011;48.238;13.948;2023-06-22T10:53:51;33.30;69.00
3994;DHT22;2011;48.238;13.948;2023-06-22T10:56:19;33.20;70.00
3994;DHT22;2011;48.238;13.948;2023-06-22T10:58:46;33.30;69.70
3994;DHT22;2011;48.238;13.948;2023-06-22T11:01:14;33.40;70.60
3994;DHT22;2011;48.238;13.948;2023-06-22T11:03:41;33.50;70.80
3994;DHT22;2011;48.238;13.948;2023-06-22T11:06:09;33.60;69.10
3994;DHT22;2011;48.238;13.948;2023-06-22T11:08:38;33.60;68.00
3994;DHT22;2011;48.238;13.948;2023-06-22T11:11:05;33.60;67.10
3994;DHT22;2011;48.238;13.948;2023-06-22T11:13:33;33.70;66.70
3994;DHT22;2011;48.238;13.948;2023-06-22T11:16:01;33.70;67.60
3994;DHT22;2011;48.238;13.948;2023-06-22T11:18:28;33.90;67.90
3994;DHT22;2011;48.238;13.948;2023-06-22T11:20:55;33.90;68.30
3994;DHT22;2011;48.238;13.948;2023-06-22T11:23:23;33.90;68.40
3994;DHT22;2011;48.238;13.948;2023-06-22T11:25:53;33.90;67.50
3994;DHT22;2011;48.238;13.948;2023-06-22T11:28:20;34.00;68.00
3994;DHT22;2011;48.238;13.948;2023-06-22T11:30:49;34.10;67.00
3994;DHT22;2011;48.238;13.948;2023-06-22T11:33:16;34.30;68.00
3994;DHT22;2011;48.238;13.948;2023-06-22T11:35:44;34.50;67.90
3994;DHT22;2011;48.238;13.948;2023-06-22T11:38:11;34.70;68.20
3994;DHT22;2011;48.238;13.948;2023-06-22T11:40:39;34.60;66.30
3994;DHT22;2011;48.238;13.948;2023-06-22T11:43:08;34.40;64.70
3994;DHT22;2011;48.238;13.948;2023-06-22T11:45:35;34.40;65.50
3994;DHT22;2011;48.238;13.948;2023-06-22T11:48:03;34.40;65.40
3994;DHT22;2011;48.238;13.948;2023-06-22T11:50:30;34.50;63.90
3994;DHT22;2011;48.238;13.948;2023-06-22T11:53:01;34.60;65.80
3994;DHT22;2011;48.238;13.948;2023-06-22T11:55:29;34.50;65.30
3994;DHT22;2011;48.238;13.948;2023-06-22T11:57:58;34.50;65.10
3994;DHT22;2011;48.238;13.948;2023-06-22T12:00:31;34.50;65.90
3994;DHT22;2011;48.238;13.948;2023-06-22T12:02:59;34.50;64.70
3994;DHT22;2011;48.238;13.948;2023-06-22T12:05:26;34.60;64.00
3994;DHT22;2011;48.238;13.948;2023-06-22T12:07:54;34.70;65.50
3994;DHT22;2011;48.238;13.948;2023-06-22T12:10:22;35.10;64.10
3994;DHT22;2011;48.238;13.948;2023-06-22T12:12:50;35.10;63.10
3994;DHT22;2011;48.238;13.948;2023-06-22T12:15:18;35.20;62.80
3994;DHT22;2011;48.238;13.948;2023-06-22T12:17:47;35.40;62.30
3994;DHT22;2011;48.238;13.948;2023-06-22T12:20:15;35.40;61.20
3994;DHT22;2011;48.238;13.948;2023-06-22T12:22:43;35.40;62.80
3994;DHT22;2011;48.238;13.948;2023-06-22T12:25:11;35.50;62.60
3994;DHT22;2011;48.238;13.948;2023-06-22T12:27:38;35.40;61.00
3994;DHT22;2011;48.238;13.948;2023-06-22T12:30:06;35.10;60.30
3994;DHT22;2011;48.238;13.948;2023-06-22T12:32:34;35.00;59.10
3994;DHT22;2011;48.238;13.948;2023-06-22T12:35:03;34.70;58.90
3994;DHT22;2011;48.238;13.948;2023-06-22T12:37:33;34.90;60.80
3994;DHT22;2011;48.238;13.948;2023-06-22T12:40:01;35.10;60.60
3994;DHT22;2011;48.238;13.948;2023-06-22T12:42:29;35.20;60.30
3994;DHT22;2011;48.238;13.948;2023-06-22T12:44:57;35.40;59.20
3994;DHT22;2011;48.238;13.948;2023-06-22T12:47:24;35.50;59.90
3994;DHT22;2011;48.238;13.948;2023-06-22T12:49:52;35.70;59.70
3994;DHT22;2011;48.238;13.948;2023-06-22T12:52:21;35.60;59.30
3994;DHT22;2011;48.238;13.948;2023-06-22T12:54:50;35.60;58.00
3994;DHT22;2011;48.238;13.948;2023-06-22T12:57:18;35.70;58.50
3994;DHT22;2011;48.238;13.948;2023-06-22T12:59:46;35.90;57.80
3994;DHT22;2011;48.238;13.948;2023-06-22T13:02:14;35.90;58.80
3994;DHT22;2011;48.238;13.948;2023-06-22T13:04:41;35.90;57.10
3994;DHT22;2011;48.238;13.948;2023-06-22T13:07:08;36.00;58.10
3994;DHT22;2011;48.238;13.948;2023-06-22T13:09:37;35.90;58.20
3994;DHT22;2011;48.238;13.948;2023-06-22T13:12:05;36.00;58.60
3994;DHT22;2011;48.238;13.948;2023-06-22T13:14:32;36.20;58.30
3994;DHT22;2011;48.238;13.948;2023-06-22T13:16:59;36.30;58.10
3994;DHT22;2011;48.238;13.948;2023-06-22T13:19:28;36.40;57.60
3994;DHT22;2011;48.238;13.948;2023-06-22T13:21:59;36.50;58.40
3994;DHT22;2011;48.238;13.948;2023-06-22T13:24:31;36.60;59.40
3994;DHT22;2011;48.238;13.948;2023-06-22T13:26:59;36.80;60.90
3994;DHT22;2011;48.238;13.948;2023-06-22T13:29:27;36.80;58.20
3994;DHT22;2011;48.238;13.948;2023-06-22T13:31:54;36.80;57.60
3994;DHT22;2011;48.238;13.948;2023-06-22T13:34:23;36.80;57.90
3994;DHT22;2011;48.238;13.948;2023-06-22T13:36:50;36.80;58.20
3994;DHT22;2011;48.238;13.948;2023-06-22T13:39:32;36.80;57.80
3994;DHT22;2011;48.238;13.948;2023-06-22T13:42:00;36.80;57.50
3994;DHT22;2011;48.238;13.948;2023-06-22T13:44:27;36.90;58.00
3994;DHT22;2011;48.238;13.948;2023-06-22T13:46:54;37.00;57.30
3994;DHT22;2011;48.238;13.948;2023-06-22T13:49:22;37.00;57.80
3994;DHT22;2011;48.238;13.948;2023-06-22T13:51:49;37.00;57.60
3994;DHT22;2011;48.238;13.948;2023-06-22T13:54:16;37.10;57.90
3994;DHT22;2011;48.238;13.948;2023-06-22T13:56:43;37.20;58.40
3994;DHT22;2011;48.238;13.948;2023-06-22T13:59:20;37.10;58.20
3994;DHT22;2011;48.238;13.948;2023-06-22T14:01:48;37.10;57.00
3994;DHT22;2011;48.238;13.948;2023-06-22T14:04:15;37.20;57.90
3994;DHT22;2011;48.238;13.948;2023-06-22T14:06:43;37.20;57.70
3994;DHT22;2011;48.238;13.948;2023-06-22T14:09:10;37.20;56.90
3994;DHT22;2011;48.238;13.948;2023-06-22T14:11:36;37.20;57.00
3994;DHT22;2011;48.238;13.948;2023-06-22T14:14:04;37.40;58.40
3994;DHT22;2011;48.238;13.948;2023-06-22T14:16:34;37.40;58.50
3994;DHT22;2011;48.238;13.948;2023-06-22T14:19:02;37.50;58.40
3994;DHT22;2011;48.238;13.948;2023-06-22T14:21:29;37.60;58.60
3994;DHT22;2011;48.238;13.948;2023-06-22T14:23:57;37.70;57.90
3994;DHT22;2011;48.238;13.948;2023-06-22T14:26:25;37.80;58.30
3994;DHT22;2011;48.238;13.948;2023-06-22T14:28:53;37.80;58.00
3994;DHT22;2011;48.238;13.948;2023-06-22T14:31:22;37.70;59.00
3994;DHT22;2011;48.238;13.948;2023-06-22T14:33:52;37.80;59.30
3994;DHT22;2011;48.238;13.948;2023-06-22T14:36:21;37.70;59.20
3994;DHT22;2011;48.238;13.948;2023-06-22T14:38:48;37.60;58.20
3994;DHT22;2011;48.238;13.948;2023-06-22T14:41:16;37.60;57.70
3994;DHT22;2011;48.238;13.948;2023-06-22T14:43:46;37.60;57.50
3994;DHT22;2011;48.238;13.948;2023-06-22T14:46:15;37.60;57.10
3994;DHT22;2011;48.238;13.948;2023-06-22T14:48:43;37.60;57.60
3994;DHT22;2011;48.238;13.948;2023-06-22T14:51:12;37.60;58.80
3994;DHT22;2011;48.238;13.948;2023-06-22T14:53:40;37.60;58.60
3994;DHT22;2011;48.238;13.948;2023-06-22T14:56:07;37.70;58.80
3994;DHT22;2011;48.238;13.948;2023-06-22T14:58:35;37.80;59.00
3994;DHT22;2011;48.238;13.948;2023-06-22T15:01:03;37.90;59.10
3994;DHT22;2011;48.238;13.948;2023-06-22T15:03:31;38.00;59.30
3994;DHT22;2011;48.238;13.948;2023-06-22T15:05:58;38.00;59.90
3994;DHT22;2011;48.238;13.948;2023-06-22T15:08:27;38.00;59.70
3994;DHT22;2011;48.238;13.948;2023-06-22T15:10:57;37.90;59.40
3994;DHT22;2011;48.238;13.948;2023-06-22T15:13:25;37.90;60.00
3994;DHT22;2011;48.238;13.948;2023-06-22T15:15:53;38.00;60.00
3994;DHT22;2011;48.238;13.948;2023-06-22T15:18:22;38.10;59.90
3994;DHT22;2011;48.238;13.948;2023-06-22T15:20:50;38.00;60.50
3994;DHT22;2011;48.238;13.948;2023-06-22T15:23:18;38.10;60.20
3994;DHT22;2011;48.238;13.948;2023-06-22T15:25:47;38.00;60.40
3994;DHT22;2011;48.238;13.948;2023-06-22T15:28:15;38.00;61.60
3994;DHT22;2011;48.238;13.948;2023-06-22T15:30:43;37.90;60.60
3994;DHT22;2011;48.238;13.948;2023-06-22T15:33:10;37.90;60.50
3994;DHT22;2011;48.238;13.948;2023-06-22T15:35:37;37.70;60.20
3994;DHT22;2011;48.238;13.948;2023-06-22T15:38:16;37.70;61.40
3994;DHT22;2011;48.238;13.948;2023-06-22T15:40:47;37.60;60.90
3994;DHT22;2011;48.238;13.948;2023-06-22T15:43:14;37.60;62.00
3994;DHT22;2011;48.238;13.948;2023-06-22T15:45:41;37.70;61.90
3994;DHT22;2011;48.238;13.948;2023-06-22T15:48:27;37.70;62.00
3994;DHT22;2011;48.238;13.948;2023-06-22T15:50:54;37.80;62.60
3994;DHT22;2011;48.238;13.948;2023-06-22T15:53:22;37.70;62.10